Time;durP1;ratioP1;P1;durP2;ratioP2;P2;SDS_P1;SDS_P2;PMS_P1;PMS_P2;Temp;Humidity;BMP_temperature;BMP_pressure;BME280_temperature;BME280_humidity;BME280_pressure;Samples;Min_cycle;Max_cycle;Signal;HPM_P1;HPM_P2
2022/10/16 00:10:33;;;;;;;68.10;39.90;;;;;;;15.52;100.00;100276.55;640803;1291;140731;-84
2022/10/16 00:25:36;;;;;;;69.80;41.90;;;;;;;15.53;100.00;100260.09;640834;1297;139422;-83
2022/10/16 00:40:39;;;;;;;62.50;37.70;;;;;;;15.57;100.00;100268.31;640742;1306;142779;-84
2022/10/16 00:55:42;;;;;;;62.10;37.40;;;;;;;15.59;100.00;100281.50;639176;1297;1347729;-83
2022/10/16 01:10:59;;;;;;;61.00;37.50;;;;;;;15.58;100.00;100290.27;639524;1311;141176;-82
2022/10/16 01:26:31;;;;;;;61.00;36.90;;;;;;;15.57;100.00;100302.81;640779;1294;139374;-83
2022/10/16 01:41:43;;;;;;;52.80;33.30;;;;;;;15.53;100.00;100299.71;641017;1312;140949;-83
2022/10/16 01:56:50;;;;;;;57.50;35.50;;;;;;;15.47;100.00;100290.00;640407;1297;139528;-83
2022/10/16 02:11:57;;;;;;;53.30;32.50;;;;;;;15.38;100.00;100287.77;640490;1292;141041;-83
2022/10/16 02:27:22;;;;;;;55.30;32.90;;;;;;;15.23;100.00;100295.56;640819;1312;140354;-82
2022/10/16 02:42:37;;;;;;;52.90;32.20;;;;;;;15.05;100.00;100309.92;640623;1313;141136;-83
2022/10/16 02:57:40;;;;;;;46.40;28.30;;;;;;;14.87;100.00;100313.27;640471;1313;140233;-82
2022/10/16 03:12:43;;;;;;;48.40;29.90;;;;;;;14.73;100.00;100305.20;640508;1297;140191;-82
2022/10/16 03:27:46;;;;;;;44.10;29.20;;;;;;;14.61;100.00;100303.43;640897;1288;140652;-82
2022/10/16 03:42:49;;;;;;;39.60;26.20;;;;;;;14.48;100.00;100310.95;641644;1294;140514;-82
2022/10/16 03:57:52;;;;;;;41.30;26.20;;;;;;;14.41;100.00;100325.83;640604;1305;140315;-82
2022/10/16 04:12:55;;;;;;;38.20;24.40;;;;;;;14.39;100.00;100337.36;640983;1305;139627;-82
2022/10/16 04:27:58;;;;;;;36.20;23.30;;;;;;;14.54;100.00;100350.09;640474;1305;140961;-82
2022/10/16 04:43:05;;;;;;;30.70;19.10;;;;;;;14.56;100.00;100351.88;641107;1304;139932;-83
2022/10/16 04:58:09;;;;;;;29.50;19.40;;;;;;;14.56;100.00;100345.21;640393;1292;140393;-82
2022/10/16 05:13:12;;;;;;;28.80;18.90;;;;;;;14.58;100.00;100352.55;641580;1294;139471;-82
2022/10/16 05:28:15;;;;;;;25.40;17.40;;;;;;;14.67;100.00;100368.01;640844;1294;139539;-82
2022/10/16 05:43:19;;;;;;;26.00;16.50;;;;;;;14.72;100.00;100362.79;639891;1304;139367;-80
2022/10/16 05:58:23;;;;;;;25.70;17.10;;;;;;;14.80;100.00;100366.60;639800;1311;142369;-80
2022/10/16 06:13:26;;;;;;;25.60;16.70;;;;;;;15.01;100.00;100396.16;639906;1296;140589;-82
2022/10/16 06:28:30;;;;;;;25.60;17.30;;;;;;;15.20;100.00;100424.52;642290;1291;140471;-83
2022/10/16 06:43:36;;;;;;;22.70;15.90;;;;;;;15.33;100.00;100429.14;641570;1295;139742;-80
2022/10/16 06:58:40;;;;;;;19.80;14.10;;;;;;;15.49;100.00;100423.47;640555;1294;140628;-81
2022/10/16 07:13:44;;;;;;;20.60;14.30;;;;;;;15.61;100.00;100441.09;640799;1291;141277;-81
2022/10/16 07:28:54;;;;;;;22.20;14.60;;;;;;;15.75;100.00;100450.58;645163;1297;140075;-81
2022/10/16 07:44:00;;;;;;;19.40;13.80;;;;;;;16.06;100.00;100452.48;640581;1305;139941;-81
2022/10/16 07:59:03;;;;;;;18.60;13.40;;;;;;;16.18;100.00;100469.21;640220;1294;141000;-80
2022/10/16 08:14:06;;;;;;;23.00;15.00;;;;;;;16.53;100.00;100473.84;639955;1295;140944;-81
2022/10/16 08:29:10;;;;;;;33.20;20.90;;;;;;;16.80;100.00;100491.61;643789;1291;140952;-81
2022/10/16 08:44:36;;;;;;;15.40;10.60;;;;;;;17.24;100.00;100493.46;641784;1281;139739;-81
2022/10/16 08:59:40;;;;;;;20.40;12.30;;;;;;;17.59;100.00;100494.42;641276;1289;141832;-81
2022/10/16 09:14:55;;;;;;;15.70;10.90;;;;;;;17.68;100.00;100512.29;640870;1295;140432;-80
2022/10/16 09:29:58;;;;;;;22.20;12.90;;;;;;;18.31;100.00;100515.33;644373;1311;140142;-81
2022/10/16 09:45:04;;;;;;;18.00;9.50;;;;;;;18.93;100.00;100525.20;640299;1303;141028;-80
2022/10/16 10:00:11;;;;;;;12.60;8.40;;;;;;;20.08;100.00;100519.02;640342;1297;140939;-80
2022/10/16 10:15:23;;;;;;;12.60;9.20;;;;;;;19.95;100.00;100522.63;639744;1304;141182;-80
2022/10/16 10:30:36;;;;;;;9.20;7.00;;;;;;;20.30;100.00;100522.48;639944;1294;140775;-80
2022/10/16 10:45:45;;;;;;;10.90;7.60;;;;;;;20.82;100.00;100524.02;643836;1297;140829;-81
2022/10/16 11:01:12;;;;;;;11.30;6.90;;;;;;;20.74;100.00;100524.48;640977;1296;140002;-80
2022/10/16 11:16:22;;;;;;;11.00;7.10;;;;;;;20.60;100.00;100516.42;640193;1294;141464;-81
2022/10/16 11:31:42;;;;;;;10.60;7.40;;;;;;;20.41;100.00;100516.63;639521;1306;141529;-80
2022/10/16 11:47:00;;;;;;;9.30;6.50;;;;;;;20.42;100.00;100518.93;639809;1297;141485;-80
2022/10/16 12:03:20;;;;;;;9.00;6.70;;;;;;;20.76;100.00;100519.95;639830;1304;139692;-79
2022/10/16 12:18:24;;;;;;;;;;;;;;;21.21;100.00;100540.05;638925;1299;139547;-81
2022/10/16 12:34:01;;;;;;;12.70;8.60;;;;;;;20.81;100.00;100538.23;640636;1298;127683;-80
2022/10/16 12:49:14;;;;;;;12.20;8.70;;;;;;;20.76;100.00;100536.64;640031;1298;141388;-80
2022/10/16 13:04:31;;;;;;;12.70;8.30;;;;;;;20.64;100.00;100539.74;638659;1304;985453;-80
2022/10/16 13:20:17;;;;;;;9.40;7.20;;;;;;;20.85;100.00;100543.55;640695;1294;141148;-80
2022/10/16 13:35:27;;;;;;;11.50;8.70;;;;;;;20.50;100.00;100574.70;639595;1297;139116;-81
2022/10/16 13:50:30;;;;;;;17.60;11.20;;;;;;;20.32;100.00;100585.00;640522;1311;141168;-81
2022/10/16 14:05:34;;;;;;;13.50;9.60;;;;;;;20.11;100.00;100600.76;641382;1291;141241;-80
2022/10/16 14:20:38;;;;;;;20.20;14.00;;;;;;;20.08;100.00;100608.68;651672;1296;140053;-81
2022/10/16 14:35:44;;;;;;;16.10;10.50;;;;;;;20.14;100.00;100622.09;642903;1310;142262;-81
2022/10/16 14:50:47;;;;;;;16.70;11.40;;;;;;;20.35;100.00;100642.31;640627;1294;140919;-80
2022/10/16 15:05:50;;;;;;;44.20;34.00;;;;;;;20.76;100.00;100644.45;639600;1288;141999;-80
2022/10/16 15:20:55;;;;;;;17.20;12.50;;;;;;;20.35;100.00;100659.01;640175;1287;139367;-80
2022/10/16 15:35:58;;;;;;;20.50;13.10;;;;;;;21.05;100.00;100654.44;639230;1291;141081;-80
2022/10/16 15:51:07;;;;;;;19.30;12.80;;;;;;;20.02;100.00;100669.31;641658;1294;141078;-81
2022/10/16 16:06:13;;;;;;;21.80;15.40;;;;;;;19.50;100.00;100674.98;639527;1298;141205;-81
2022/10/16 16:21:17;;;;;;;19.00;12.40;;;;;;;19.12;100.00;100699.77;645450;1290;140783;-81
2022/10/16 16:36:21;;;;;;;19.00;13.20;;;;;;;18.80;100.00;100717.61;640308;1299;141320;-79
2022/10/16 16:51:26;;;;;;;21.70;14.80;;;;;;;18.56;100.00;100733.69;639824;1294;141290;-79
2022/10/16 17:06:29;;;;;;;35.60;22.40;;;;;;;18.40;100.00;100743.26;640340;1295;140210;-80
2022/10/16 17:21:34;;;;;;;26.60;18.10;;;;;;;18.25;100.00;100753.40;639652;1304;139379;-80
2022/10/16 17:36:42;;;;;;;31.70;19.80;;;;;;;18.10;100.00;100765.42;640882;1306;140291;-80
2022/10/16 17:51:53;;;;;;;61.60;31.20;;;;;;;17.90;100.00;100787.75;642554;1293;140368;-80
2022/10/16 18:06:59;;;;;;;57.90;33.90;;;;;;;17.58;100.00;100806.85;641828;1301;141559;-80
2022/10/16 18:22:02;;;;;;;89.10;41.50;;;;;;;17.40;100.00;100835.31;642703;1296;141197;-80
2022/10/16 18:37:06;;;;;;;46.60;27.00;;;;;;;17.28;100.00;100847.18;640722;1294;141847;-80
2022/10/16 18:52:10;;;;;;;52.90;28.80;;;;;;;17.13;100.00;100872.13;641439;1294;140765;-79
2022/10/16 19:07:16;;;;;;;45.00;25.60;;;;;;;16.89;100.00;100885.55;642494;1294;140289;-78
2022/10/16 19:22:50;;;;;;;43.70;23.60;;;;;;;16.64;100.00;100905.45;649262;1297;140246;-79
2022/10/16 19:37:54;;;;;;;39.90;26.00;;;;;;;16.49;100.00;100926.80;641572;1296;140657;-79
2022/10/16 19:52:57;;;;;;;32.30;20.70;;;;;;;16.37;100.00;100939.48;640975;1295;140088;-79
2022/10/16 20:08:00;;;;;;;37.30;23.20;;;;;;;16.27;100.00;100959.70;641118;1303;140061;-79
2022/10/16 20:23:03;;;;;;;41.30;22.80;;;;;;;16.20;100.00;100981.06;642606;1297;140296;-79
2022/10/16 20:38:08;;;;;;;68.10;41.10;;;;;;;16.04;100.00;100990.23;640602;1294;141331;-79
2022/10/16 20:53:12;;;;;;;41.50;24.90;;;;;;;15.95;100.00;100996.83;639596;1303;140200;-79
2022/10/16 21:08:16;;;;;;;37.40;21.80;;;;;;;15.80;100.00;101008.02;639875;1290;140594;-79
2022/10/16 21:23:19;;;;;;;34.40;21.00;;;;;;;15.48;100.00;101030.95;640205;1298;139598;-80
2022/10/16 21:38:22;;;;;;;53.40;29.40;;;;;;;15.15;100.00;101050.85;647281;1312;141249;-80
2022/10/16 21:53:25;;;;;;;62.90;34.80;;;;;;;14.90;100.00;101077.55;639549;1295;139969;-81
2022/10/16 22:08:29;;;;;;;58.90;29.40;;;;;;;14.75;100.00;101099.83;639456;1313;139995;-79
2022/10/16 22:23:32;;;;;;;29.60;18.20;;;;;;;14.53;100.00;101105.77;640808;1297;139868;-78
2022/10/16 22:38:35;;;;;;;53.20;27.10;;;;;;;14.24;100.00;101116.65;640913;1304;139819;-81
2022/10/16 22:53:40;;;;;;;32.60;18.90;;;;;;;13.79;100.00;101137.39;639858;1289;140990;-80
2022/10/16 23:08:43;;;;;;;38.50;20.40;;;;;;;13.56;100.00;101160.76;639537;1298;140528;-79
2022/10/16 23:23:46;;;;;;;38.30;18.70;;;;;;;13.45;100.00;101173.83;640092;1302;139757;-79
2022/10/16 23:38:50;;;;;;;43.00;21.10;;;;;;;13.18;100.00;101166.10;640862;1309;139837;-79
2022/10/16 23:53:53;;;;;;;57.70;31.20;;;;;;;12.72;100.00;101176.98;640327;1305;140453;-79
